map of KNQ home
KNQ - Airport
Location
City:  Koné, New Caledonia
ICAO:NWWD
IATA:KNQ

Details
Type:Airport (Aerodrome, Airfield)
Latitude:21°03'12"S (-21.053332)
Longitude:164°50'16"E (164.837778)
Elevation:23 ft (7 m)
Variation:11.87°E (WMM2015 magnetic declination)
0.03° annual change
Runways:1
Longest:3244 × 66 ft (989 × 20 m)

Time
Time Zone:UTC+11
Local Time:

Weather
TAF:NWWD 220500Z 2206/2306 10015KT 9999 FEW025 BKN040
BECMG 2206/2208 04005KT PROB30
TEMPO 2300/2306 4000 SHRA BKN014 SCT015CB

Related Locations
Nearby:
Farthest:AJJ: 12329 mi / 19842 km
Akjoujt, MR

Find:

   beyond  
but within

Other Information
Maps:
NOTAMs:
Links:
Sources:

  
  • flag of New Caledonia
  

Sectional Chart

Flight Planning
at skyvector.com

Satellite Image

Google Maps Satellite view

 

Copyright © 2004-2018 Karl L. Swartz. All rights reserved.
The Great Circle Mapper name and logo are trademarks of the Great Circle Mapper.
All other trademarks mentioned herein belong to their respective owners.
Please see credits for attibutions and further copyright information.

  Follow gcmap on Facebook Follow gcmap on Twitter Follow gcmap on Google+ GCmap on LinkedIn

hCard Microformat

Geo Microformat